M I D A S
Marine Information and Data Acquisition System
Tripno 325 of the Zeeleeuw from 2002-08-12 06:44:28 to 2002-08-12 13:50:56
Back to CruiseResearch ActivitiesStationsMapUnderway DataData graphs

EquipmentUnitsComment
TimeDGPSUTC
LatitudeDGPSDM.mWGS84
LongitudeDGPSDM.mWGS84
TemperatureSBE03/SBE38deg celciusITS90
ConductivitySBE21S/mITS90
SalinitySBE21 Practical Salinity Units
ChlorophylAChelsea fluorimeterg/lCalibrated in Aceton
Missing or incorrect values are displayed as -999
Sea surface data collected by the RV Zeeleeuw from 2002-08-12 06:44:28 to 2002-08-12 13:50:56
Time Latitude Longitude Temperature Conductivity Salinity ChlorophylA
2002-08-12 06:45:32 51°13.633 2°55.955 21.383221 0.966571 5.599834  
2002-08-12 06:46:32 51°13.666 2°55.875 21.387269 0.966467 5.599683  
2002-08-12 06:47:32 51°13.704 2°55.771 21.391951 0.966362 5.599449  
2002-08-12 06:48:32 51°13.765 2°55.688 21.395601 0.966362 5.599951  
2002-08-12 06:49:32 51°13.842 2°55.631 21.402028 0.966362 5.600453  
2002-08-12 06:50:32 51°13.925 2°55.574 21.40655 0.966362 5.600955  
2002-08-12 06:51:32 51°14.018 2°55.51 21.411429 0.966362 5.601373  
2002-08-12 06:52:32 51°14.115 2°55.434 38.231384 0.966362 5.601958  
2002-08-12 06:53:32 51°14.216 2°55.329 23.572377 0.966362 5.602377  
2002-08-12 06:54:32 51°14.304 2°55.19 23.93161 0.966362 5.602879  
2002-08-12 06:55:32 51°14.374 2°55.018 23.76214 0.966467 5.604453  
2002-08-12 06:56:32 51°14.387 2°54.824 23.359381 0.966467 5.605625  
2002-08-12 06:57:32 51°14.35 2°54.62 25.086454 0.966571 5.607116  
2002-08-12 06:58:32 51°14.288 2°54.42 25.0598 0.966571 5.607871  
2002-08-12 06:59:32 51°14.206 2°54.173 24.661693 0.966781 5.609931  
2002-08-12 07:00:32 51°14.105 2°53.859 25.165832 0.966676 5.610285  
2002-08-12 07:01:32 51°13.997 2°53.513 25.264416 0.966781 5.611862  
2002-08-12 07:02:30 51°13.89 2°53.172 24.903335 0.966781 5.612954  
2002-08-12 07:03:32 51°13.774 2°52.802 24.819358 0.966885 5.614952  
2002-08-12 07:04:32 51°13.661 2°52.447 25.228121 0.967199 5.618174  
2002-08-12 07:05:32 51°13.549 2°52.092 24.832939 0.967304 5.620511  
2002-08-12 07:06:32 51°13.439 2°51.736 25.24234 0.967618 5.62382  
2002-08-12 07:07:32 51°13.326 2°51.382 25.347357 0.967722 5.625654  
2002-08-12 07:08:32 51°13.206 2°51.032 24.771788 0.967827 5.627911  
2002-08-12 07:09:32 51°13.087 2°50.682 24.99616 0.967827 5.629346  
2002-08-12 07:10:32 51°12.968 2°50.331 24.698423 0.968036 5.632092  
2002-08-12 07:11:32 51°12.849 2°49.979 24.737368 0.968141 5.633676  
2002-08-12 07:12:32 51°12.731 2°49.629 24.531267 0.968246 5.635684  
2002-08-12 07:13:32 51°12.613 2°49.279 24.848634 0.968246 5.636869  
2002-08-12 07:14:32 51°12.495 2°48.927 24.705736 0.968455 5.639365  
2002-08-12 07:15:32 51°12.376 2°48.573 25.233689 0.96835 5.639896  
2002-08-12 07:16:32 51°12.256 2°48.221 25.068246 0.968246 5.640427  
2002-08-12 07:17:32 51°12.134 2°47.87 25.269906 0.968455 5.642416  
2002-08-12 07:18:32 51°12.012 2°47.519 25.06817 0.968455 5.643265  
2002-08-12 07:19:32 51°11.889 2°47.168 24.675341 0.96835 5.643542  
2002-08-12 07:20:32 51°11.767 2°46.818 25.218414 0.968246 5.64382  
2002-08-12 07:21:32 51°11.649 2°46.474 25.04166 0.968455 5.645896  
2002-08-12 07:22:32 51°11.532 2°46.136 24.900425 0.968037 5.644886  
2002-08-12 07:23:32 51°11.417 2°45.798 24.908285 0.968141 5.646732  
2002-08-12 07:24:32 51°11.3 2°45.457 25.516555 0.967827 5.646293  
2002-08-12 07:25:32 51°11.184 2°45.119 24.883606 0.967618 5.646935  
2002-08-12 07:26:32 51°11.068 2°44.78 24.765087 0.967723 5.648528  
2002-08-12 07:27:32 51°10.951 2°44.442 24.43606 0.967305 5.647944  
2002-08-12 07:28:32 51°10.838 2°44.102 24.819283 0.9672 5.647457  
2002-08-12 07:29:32 51°10.725 2°43.763 24.364982 0.966991 5.648527  
2002-08-12 07:30:32 51°10.609 2°43.428 25.090902 0.966677 5.647493  
2002-08-12 07:31:32 51°10.514 2°43.08 24.603776 0.966468 5.648223  
2002-08-12 07:32:32 51°10.409 2°42.741 24.890712 0.966154 5.647785  
2002-08-12 07:33:32 51°10.324 2°42.39 25.029665 0.966154 5.648723  
2002-08-12 07:34:32 51°10.231 2°42.045 24.914746 0.96584 5.648029  
2002-08-12 07:35:32 51°10.142 2°41.695 25.47896 0.965736 5.649419  
2002-08-12 07:36:32 51°10.065 2°41.337 25.118864 0.965527 5.648188  
2002-08-12 07:37:32 51°9.986 2°40.977 25.313921 0.965317 5.649262  
2002-08-12 07:38:32 51°9.907 2°40.614 22.518815 0.965213 5.649629  
2002-08-12 07:39:32 51°9.827 2°40.251 19.771166 4.560224 32.990314  
2002-08-12 07:40:32 51°9.749 2°39.884 19.652319 4.57448 33.738545  
2002-08-12 07:41:32 51°9.67 2°39.515 19.838525 4.573531 33.778042  
2002-08-12 07:42:32 51°9.59 2°39.144 19.704555 4.571104 33.770689  
2002-08-12 07:43:32 51°9.511 2°38.77 19.642843 4.570894 33.800784  
2002-08-12 07:44:32 51°9.43 2°38.396 19.664192 4.568362 33.811701  
2002-08-12 07:45:32 51°9.333 2°38.033 19.6463 4.568679 33.832328  
2002-08-12 07:46:32 51°9.226 2°37.679 19.607938 4.568574 33.839008  
2002-08-12 07:47:32 51°9.147 2°37.418 19.784927 4.569734 33.848636  
2002-08-12 07:48:32 51°9.087 2°37.274 19.530663 4.570262 33.844872  
2002-08-12 07:49:32 51°9.063 2°37.221 19.636539 4.571633 33.848109  
2002-08-12 07:50:32 51°9.054 2°37.179 19.906306 4.572688 33.855114  
2002-08-12 07:51:32 51°9.095 2°37.086 19.54048 4.571211 33.837638  
2002-08-12 07:52:32 51°9.143 2°37.147 18.989757 4.571844 33.839981  
2002-08-12 07:53:32 51°9.101 2°37.25 18.963971 4.572688 33.837105  
2002-08-12 07:54:32 51°9.071 2°37.271 18.982983 4.569629 33.832649  
2002-08-12 07:55:32 51°9.073 2°37.281 18.941955 4.570473 33.846622  
2002-08-12 07:56:32 51°9.093 2°37.292 18.936655 4.56984 33.848348  
2002-08-12 07:57:32 51°9.101 2°37.284 18.967379 4.569418 33.8495  
2002-08-12 07:58:32 51°9.114 2°37.275 18.964669 4.568785 33.843085  
2002-08-12 07:59:32 51°9.128 2°37.265 18.929506 4.568363 33.847144  
2002-08-12 08:00:32 51°9.145 2°37.257 18.931191 4.568574 33.847731  
2002-08-12 08:01:32 51°9.162 2°37.248 18.930246 4.56984 33.856491  
2002-08-12 08:02:32 51°9.179 2°37.24 18.931643 4.569629 33.852995  
2002-08-12 08:03:32 51°9.191 2°37.229 18.931438 4.56889 33.846868  
2002-08-12 08:04:32 51°9.197 2°37.214 18.965942 4.568785 33.845992  
2002-08-12 08:05:32 51°9.226 2°37.173 18.967749 4.568996 33.844835  
2002-08-12 08:06:32 51°9.177 2°37.03 18.95243 4.569523 33.845141  
2002-08-12 08:07:32 51°9.135 2°37.142 18.939244 4.570051 33.837891  
2002-08-12 08:08:32 51°9.159 2°37.25 18.926096 4.568785 33.840759  
2002-08-12 08:09:32 51°9.164 2°37.286 18.919234 4.567519 33.84014  
2002-08-12 08:10:32 51°9.165 2°37.278 18.915699 4.567308 33.843624  
2002-08-12 08:11:32 51°9.165 2°37.267 18.947706 4.567414 33.845082  
2002-08-12 08:12:32 51°9.165 2°37.256 18.913193 4.567836 33.848002  
2002-08-12 08:13:32 51°9.163 2°37.244 18.913809 4.56868 33.855589  
2002-08-12 08:14:32 51°9.161 2°37.232 18.924904 4.568574 33.85064  
2002-08-12 08:15:32 51°9.162 2°37.22 18.915165 4.569629 33.854741  
2002-08-12 08:16:32 51°9.165 2°37.207 18.945652 4.567625 33.848578  
2002-08-12 08:17:32 51°9.172 2°37.196 18.979985 4.567519 33.848867  
2002-08-12 08:18:32 51°9.182 2°37.191 18.948281 4.567414 33.847409  
2002-08-12 08:19:32 51°9.192 2°37.197 18.919234 4.567941 33.848878  
2002-08-12 08:20:32 51°9.197 2°37.214 18.954853 4.568046 33.843936  
2002-08-12 08:21:32 51°9.2 2°37.238 18.919069 4.568257 33.845687  
2002-08-12 08:22:32 51°9.203 2°37.262 19.020581 4.567624 33.841016  
2002-08-12 08:23:33 51°9.204 2°37.281 18.923014 4.567835 33.841022  
2002-08-12 08:24:32 51°9.2 2°37.297 18.956455 4.567519 33.83607  
2002-08-12 08:25:32 51°9.191 2°37.312 18.92437 4.568257 33.842779  
2002-08-12 08:26:32 51°9.177 2°37.327 18.924904 4.568046 33.838121  
2002-08-12 08:27:32 51°9.156 2°37.336 18.923014 4.568257 33.841616  
2002-08-12 08:28:32 51°9.127 2°37.332 18.958016 4.568257 33.842197  
2002-08-12 08:29:32 51°9.094 2°37.318 18.925356 4.568996 33.848906  
2002-08-12 08:30:32 51°9.058 2°37.296 18.961178 4.568996 33.84658  
2002-08-12 08:31:32 51°9.022 2°37.262 18.928356 4.569418 33.847755  
2002-08-12 08:32:32 51°8.991 2°37.218 18.928438 4.569523 33.847467  
2002-08-12 08:33:32 51°8.968 2°37.172 18.964792 4.568679 33.840465  
2002-08-12 08:34:32 51°8.942 2°37.082 18.93645 4.569418 33.844266  
2002-08-12 08:35:32 51°8.904 2°36.776 18.94253 4.569101 33.835828  
2002-08-12 08:36:32 51°8.897 2°36.417 18.937888 4.568996 33.834372  
2002-08-12 08:37:32 51°8.885 2°36.036 18.961794 4.569629 33.835554  
2002-08-12 08:38:32 51°8.885 2°35.632 19.014138 4.571 33.823115  
2002-08-12 08:39:32 51°8.892 2°35.228 19.039495 4.576274 33.822736  
2002-08-12 08:40:32 51°8.922 2°34.83 19.13739 4.578384 33.812401  
2002-08-12 08:41:32 51°8.952 2°34.434 19.151768 4.587457 33.819178  
2002-08-12 08:42:32 51°8.983 2°34.041 19.138578 4.587562 33.828136  
2002-08-12 08:43:32 51°9.02 2°33.648 19.135465 4.587351 33.825237  
2002-08-12 08:44:32 51°9.057 2°33.254 19.118052 4.586297 33.83675  
2002-08-12 08:45:32 51°9.097 2°32.978 19.119322 4.58904 33.849586  
2002-08-12 08:46:32 51°9.135 2°32.908 19.152218 4.589251 33.855957  
2002-08-12 08:47:32 51°9.138 2°32.892 19.143904 4.588723 33.859119  
2002-08-12 08:48:32 51°9.136 2°32.88 19.161884 4.588934 33.854498  
2002-08-12 08:49:32 51°9.131 2°32.866 19.133007 4.590517 33.853693  
2002-08-12 08:50:32 51°9.124 2°32.85 19.124854 4.590095 33.858882  
2002-08-12 08:51:32 51°9.115 2°32.833 19.131655 4.590306 33.860625  
2002-08-12 08:52:32 51°9.105 2°32.815 19.130344 4.589989 33.85107  
2002-08-12 08:53:32 51°9.094 2°32.794 19.111495 4.590622 33.862662  
2002-08-12 08:54:33 51°9.082 2°32.776 19.118134 4.589251 33.855957  
2002-08-12 08:55:32 51°9.073 2°32.759 19.122067 4.589884 33.858295  
2002-08-12 08:56:32 51°9.067 2°32.741 19.109036 4.589778 33.860894  
2002-08-12 08:57:32 51°9.069 2°32.721 19.10379 4.589673 33.861758  
2002-08-12 08:58:32 51°9.078 2°32.702 19.120551 4.588829 33.86057  
2002-08-12 08:59:33 51°9.099 2°32.691 19.120551 4.589251 33.860007  
2002-08-12 09:00:32 51°9.115 2°32.693 19.113462 4.589673 33.855973  
2002-08-12 09:01:32 51°9.122 2°32.7 19.099896 4.588723 33.862592  
2002-08-12 09:02:32 51°9.126 2°32.697 19.100757 4.588512 33.863742  
2002-08-12 09:03:32 51°9.129 2°32.693 19.093912 4.58809 33.863727  
2002-08-12 09:04:32 51°9.129 2°32.693 19.091042 4.588196 33.870969  
2002-08-12 09:05:32 51°9.13 2°32.693 19.131163 4.587141 33.858771  
2002-08-12 09:06:32 51°9.13 2°32.691 19.092846 4.587774 33.862847  
2002-08-12 09:07:32 51°9.131 2°32.687 19.088419 4.58693 33.859921  
2002-08-12 09:08:32 51°9.132 2°32.685 19.083868 4.587141 33.861087  
2002-08-12 09:09:33 51°9.134 2°32.69 19.082802 4.587352 33.864569  
2002-08-12 09:10:32 51°9.138 2°32.715 19.14845 4.58693 33.862817  
2002-08-12 09:11:32 51°9.128 2°32.761 19.087271 4.585875 33.856988  
2002-08-12 09:12:32 51°9.096 2°32.808 19.098544 4.585664 33.847138  
2002-08-12 09:13:32 51°9.056 2°32.836 19.103216 4.586613 33.850358  
2002-08-12 09:14:32 51°9.009 2°32.851 19.109077 4.587035 33.846903  
2002-08-12 09:15:32 51°8.956 2°32.848 19.100921 4.586508 33.845435  
2002-08-12 09:16:32 51°8.905 2°32.826 19.136858 4.586297 33.846005  
2002-08-12 09:17:33 51°8.861 2°32.792 19.130958 4.586402 33.84572  
2002-08-12 09:18:32 51°8.823 2°32.752 19.159181 4.587141 33.837942  
2002-08-12 09:19:32 51°8.693 2°32.627 19.173226 4.590727 33.832324  
2002-08-12 09:20:32 51°8.511 2°32.444 19.118134 4.588301 33.830191  
2002-08-12 09:21:32 51°8.481 2°32.268 19.136202 4.585663 33.824582  
2002-08-12 09:22:32 51°8.482 2°32.195 19.09965 4.585242 33.832079  
2002-08-12 09:23:33 51°8.449 2°32.17 19.124116 4.585136 33.831207  
2002-08-12 09:24:33 51°8.436 2°32.15 19.078989 4.584714 33.841602  
2002-08-12 09:25:32 51°8.45 2°32.166 19.0992 4.58387 33.828839  
2002-08-12 09:26:32 51°8.469 2°32.215 19.109323 4.584397 33.825682  
2002-08-12 09:27:32 51°8.493 2°32.275 19.112274 4.585136 33.828894  
2002-08-12 09:28:33 51°8.501 2°32.285 19.098134 4.585558 33.826022  
2002-08-12 09:29:32 51°8.501 2°32.276 19.116085 4.583976 33.831447  
2002-08-12 09:30:32 51°8.505 2°32.27 19.131286 4.585241 33.817051  
2002-08-12 09:31:32 51°8.507 2°32.279 19.133089 4.586402 33.81624  
2002-08-12 09:32:32 51°8.511 2°32.294 19.135629 4.586613 33.81856  
2002-08-12 09:33:32 51°8.52 2°32.306 19.128172 4.58598 33.819108  
2002-08-12 09:34:32 51°8.528 2°32.322 19.121371 4.586296 33.8223  
2002-08-12 09:35:33 51°8.533 2°32.342 19.13948 4.586191 33.819118  
2002-08-12 09:36:32 51°8.531 2°32.352 19.134727 4.587879 33.827284  
2002-08-12 09:37:32 51°8.526 2°32.354 19.139111 4.58714 33.825805  
2002-08-12 09:38:33 51°8.518 2°32.348 19.183053 4.587457 33.82091  
2002-08-12 09:39:32 51°8.508 2°32.339 19.138414 4.58809 33.819209  
2002-08-12 09:40:32 51°8.497 2°32.328 19.187351 4.587351 33.81773  
2002-08-12 09:41:33 51°8.489 2°32.317 19.161802 4.588406 33.818935  
2002-08-12 09:42:33 51°8.487 2°32.311 19.161433 4.588828 33.817802  
2002-08-12 09:43:32 51°8.487 2°32.311 19.149106 4.588195 33.816616  
2002-08-12 09:44:32 51°8.488 2°32.315 19.179327 4.588723 33.818085  
2002-08-12 09:45:32 51°8.49 2°32.322 19.130876 4.588406 33.824132  
2002-08-12 09:46:33 51°8.49 2°32.332 19.160696 4.587351 33.82697  
2002-08-12 09:47:32 51°8.49 2°32.342 19.105839 4.587351 33.835061  
2002-08-12 09:48:32 51°8.488 2°32.352 19.147303 4.586085 33.830959  
2002-08-12 09:49:33 51°8.486 2°32.357 19.107069 4.585663 33.827472  
2002-08-12 09:50:32 51°8.483 2°32.359 19.109815 4.585347 33.827169  
2002-08-12 09:51:32 51°8.481 2°32.355 19.110798 4.585558 33.8266  
2002-08-12 09:52:32 51°8.487 2°32.361 19.113134 4.586507 33.831556  
2002-08-12 09:53:32 51°8.498 2°32.383 19.117396 4.585874 33.829216  
2002-08-12 09:54:32 51°8.505 2°32.41 19.150171 4.587035 33.831868  
2002-08-12 09:55:32 51°8.5 2°32.436 19.123706 4.58598 33.824308  
2002-08-12 09:56:33 51°8.477 2°32.465 19.134482 4.587035 33.827245  
2002-08-12 09:57:32 51°8.435 2°32.477 19.161515 4.587457 33.820333  
2002-08-12 09:58:33 51°8.386 2°32.475 19.185468 4.588406 33.808548  
2002-08-12 09:59:32 51°8.337 2°32.463 19.20487 4.590199 33.80259  
2002-08-12 10:00:33 51°8.288 2°32.435 19.252942 4.590199 33.791067  
2002-08-12 10:01:32 51°8.246 2°32.397 19.22087 4.591676 33.789427  
2002-08-12 10:02:32 51°8.208 2°32.351 19.261857 4.591359 33.786818  
2002-08-12 10:03:33 51°8.174 2°32.302 19.224962 4.591992 33.788007  
2002-08-12 10:04:32 51°8.143 2°32.252 19.234167 4.592203 33.787444  
2002-08-12 10:05:32 51°8.085 2°32.198 19.223571 4.592098 33.785999  
2002-08-12 10:06:33 51°8.07 2°32.17 19.216205 4.591781 33.783966  
2002-08-12 10:07:32 51°8.043 2°32.201 19.216042 4.590515 33.782163  
2002-08-12 10:08:32 51°8.042 2°32.234 19.203355 4.590304 33.782726  
2002-08-12 10:09:32 51°8.052 2°32.279 19.210395 4.589038 33.784377  
2002-08-12 10:10:32 51°8.066 2°32.329 19.222302 4.589988 33.782419  
2002-08-12 10:11:32 51°8.07 2°32.38 19.322721 4.590093 33.772931  
2002-08-12 10:12:33 51°8.075 2°32.431 19.262552 4.590937 33.783915  
2002-08-12 10:13:33 51°8.081 2°32.478 19.258545 4.590726 33.774696  
2002-08-12 10:14:32 51°8.091 2°32.52 19.22979 4.590093 33.773506  
2002-08-12 10:15:33 51°8.097 2°32.567 19.225576 4.591043 33.777305  
2002-08-12 10:16:32 51°8.097 2°32.618 19.229258 4.591148 33.7799  
2002-08-12 10:17:32 51°8.094 2°32.669 19.255723 4.591043 33.77788  
2002-08-12 10:18:32 51°8.087 2°32.72 19.224594 4.591148 33.783352  
2002-08-12 10:19:32 51°8.088 2°32.767 19.216287 4.589882 33.780398  
2002-08-12 10:20:32 51°8.086 2°32.807 19.237399 4.589671 33.776932  
2002-08-12 10:21:32 51°8.081 2°32.842 19.191936 4.588089 33.775396  
2002-08-12 10:22:33 51°8.073 2°32.874 19.175192 4.586823 33.771864  
2002-08-12 10:23:33 51°8.065 2°32.901 19.178877 4.584713 33.769432  
2002-08-12 10:24:33 51°8.057 2°32.925 19.148205 4.581548 33.773856  
2002-08-12 10:25:33 51°8.054 2°32.936 19.099118 4.579016 33.769674  
2002-08-12 10:26:33 51°8.055 2°32.939 19.085713 4.577961 33.773655  
2002-08-12 10:27:32 51°8.051 2°32.944 19.130221 4.57659 33.774446  
2002-08-12 10:28:32 51°8.049 2°32.945 19.101536 4.577645 33.773349  
2002-08-12 10:29:32 51°8.046 2°32.936 19.0992 4.577012 33.771004  
2002-08-12 10:30:33 51°8.044 2°32.921 19.166265 4.578383 33.772524  
2002-08-12 10:31:32 51°8.042 2°32.904 19.092272 4.578383 33.77541  
2002-08-12 10:32:32 51°8.04 2°32.887 19.098134 4.576801 33.761757  
2002-08-12 10:33:32 51°8.04 2°32.875 19.09301 4.577856 33.770474  
2002-08-12 10:34:32 51°8.052 2°32.892 19.103298 4.577434 33.769296  
2002-08-12 10:35:33 51°8.07 2°32.932 19.107602 4.578489 33.76647  
2002-08-12 10:36:33 51°8.091 2°32.969 19.103339 4.578172 33.766741  
2002-08-12 10:37:33 51°8.103 2°32.986 19.136325 4.578594 33.765611  
2002-08-12 10:38:33 51°8.109 2°32.991 19.110347 4.578489 33.770509  
2002-08-12 10:39:33 51°8.11 2°32.988 19.105675 4.579122 33.771122  
2002-08-12 10:40:32 51°8.107 2°32.981 19.115019 4.577856 33.767011  
2002-08-12 10:41:33 51°8.102 2°32.971 19.12092 4.579227 33.767955  
2002-08-12 10:42:32 51°8.095 2°32.96 19.117683 4.579544 33.768839  
2002-08-12 10:43:32 51°8.086 2°32.948 19.113011 4.578911 33.765341  
2002-08-12 10:44:32 51°8.082 2°32.94 19.126288 4.579016 33.766212  
2002-08-12 10:45:32 51°8.082 2°32.952 19.159099 4.579333 33.763059  
2002-08-12 10:46:32 51°8.071 2°32.971 19.132761 4.580282 33.76398  
2002-08-12 10:47:33 51°8.06 2°32.987 19.133416 4.579966 33.763096  
2002-08-12 10:48:33 51°8.054 2°32.994 19.16733 4.580071 33.765697  
2002-08-12 10:49:33 51°8.051 2°32.991 19.140217 4.580177 33.761379  
2002-08-12 10:50:33 51°8.05 2°32.98 19.147426 4.581442 33.763185  
2002-08-12 10:51:32 51°8.051 2°32.966 19.177321 4.580387 33.757934  
2002-08-12 10:52:33 51°8.058 2°32.952 19.147672 4.581654 33.764926  
2002-08-12 10:53:33 51°8.073 2°32.949 19.142593 4.581653 33.762621  
2002-08-12 10:54:33 51°8.093 2°32.955 19.147017 4.581021 33.765465  
2002-08-12 10:55:32 51°8.12 2°32.987 19.189684 4.582075 33.764375  
2002-08-12 10:56:32 51°8.126 2°33.041 19.163931 4.583131 33.770201  
2002-08-12 10:57:32 51°8.13 2°33.074 19.171015 4.583763 33.764478  
2002-08-12 10:58:33 51°8.134 2°33.084 19.177894 4.583869 33.763045  
2002-08-12 10:59:32 51°8.134 2°33.083 19.218824 4.584924 33.762535  
2002-08-12 11:00:32 51°8.131 2°33.075 19.194064 4.585768 33.763164  
2002-08-12 11:01:33 51°8.124 2°33.064 19.18948 4.58619 33.76319  
2002-08-12 11:02:32 51°8.116 2°33.05 19.195415 4.58619 33.766644  
2002-08-12 11:03:33 51°8.105 2°33.035 19.263002 4.58619 33.760888  
2002-08-12 11:04:33 51°8.094 2°33.019 19.203355 4.585873 33.760005  
2002-08-12 11:05:33 51°8.082 2°33.002 19.209331 4.586506 33.761772  
2002-08-12 11:06:33 51°8.069 2°32.986 19.216778 4.587772 33.757828  
2002-08-12 11:07:32 51°8.056 2°32.971 19.221934 4.588616 33.762483  
2002-08-12 11:08:32 51°8.046 2°32.959 19.217638 4.588194 33.748084  
2002-08-12 11:09:33 51°8.045 2°32.951 19.246602 4.5883 33.759875  
2002-08-12 11:10:32 51°8.05 2°32.946 19.246521 4.587456 33.761545  
2002-08-12 11:11:33 51°8.061 2°32.947 19.218292 4.588089 33.760436  
2002-08-12 11:12:33 51°8.073 2°32.953 19.217842 4.58851 33.759889  
2002-08-12 11:13:33 51°8.086 2°32.965 19.225248 4.585556 33.733822  
2002-08-12 11:14:32 51°8.099 2°32.982 19.221034 4.58851 33.758739  
2002-08-12 11:15:33 51°8.112 2°33.003 19.225085 4.588721 33.759328  
2002-08-12 11:16:32 51°8.116 2°33.029 19.254169 4.58946 33.761389  
2002-08-12 11:17:32 51°8.102 2°33.059 19.225085 4.589671 33.760828  
2002-08-12 11:18:32 51°8.061 2°33.087 19.248934 4.590198 33.762875  
2002-08-12 11:19:33 51°7.966 2°33.003 19.258095 4.592203 33.756977  
2002-08-12 11:20:32 51°7.874 2°32.819 19.22488 4.592308 33.766463  
2002-08-12 11:21:32 51°7.799 2°32.653 19.238503 4.589566 33.766283  
2002-08-12 11:22:33 51°7.739 2°32.516 19.224348 4.587139 33.760087  
2002-08-12 11:23:33 51°7.684 2°32.395 19.212032 4.586084 33.762896  
2002-08-12 11:24:32 51°7.632 2°32.282 19.201227 4.585346 33.769471  
2002-08-12 11:25:32 51°7.579 2°32.171 19.154717 4.583658 33.763608  
2002-08-12 11:26:33 51°7.524 2°32.06 19.145214 4.582603 33.762391  
2002-08-12 11:27:32 51°7.474 2°31.952 19.133826 4.581654 33.76435  
2002-08-12 11:28:33 51°7.427 2°31.84 19.127517 4.581126 33.768642  
2002-08-12 11:29:32 51°7.383 2°31.731 19.114814 4.579755 33.76366  
2002-08-12 11:30:33 51°7.328 2°31.626 19.1117 4.579544 33.767685  
2002-08-12 11:31:33 51°7.273 2°31.524 19.108872 4.579122 33.767661  
2002-08-12 11:32:33 51°7.218 2°31.422 19.138619 4.578805 33.766777  
2002-08-12 11:33:33 51°7.161 2°31.323 19.109036 4.578805 33.769085  
2002-08-12 11:34:33 51°7.103 2°31.226 19.113339 4.579122 33.769968  
2002-08-12 11:35:32 51°7.055 2°31.124 19.129074 4.579438 33.765083  
2002-08-12 11:36:32 51°7.015 2°31.016 19.178303 4.58081 33.766605  
2002-08-12 11:37:32 51°6.981 2°30.905 19.199426 4.582919 33.766731  
2002-08-12 11:38:33 51°6.926 2°30.831 19.291049 4.584713 33.765401  
2002-08-12 11:39:32 51°6.862 2°30.832 19.190503 4.586401 33.76493  
2002-08-12 11:40:32 51°6.782 2°30.845 19.166102 4.586084 33.767501  
2002-08-12 11:41:32 51°6.691 2°30.855 19.157952 4.583763 33.767934  
2002-08-12 11:42:33 51°6.596 2°30.88 19.191281 4.583447 33.765899  
2002-08-12 11:43:32 51°6.501 2°30.897 19.181702 4.583658 33.768216  
2002-08-12 11:44:33 51°6.414 2°30.948 19.159713 4.583342 33.772519  
2002-08-12 11:45:32 51°6.421 2°31.082 19.239485 4.583869 33.765925  
2002-08-12 11:46:32 51°6.481 2°31.312 19.166184 4.585135 33.768882  
2002-08-12 11:47:32 51°6.549 2°31.572 19.168067 4.584396 33.766245  
2002-08-12 11:48:32 51°6.619 2°31.835 19.165037 4.585135 33.772914  
2002-08-12 11:49:33 51°6.692 2°32.1 19.138087 4.58503 33.777805  
2002-08-12 11:50:33 51°6.765 2°32.361 19.112479 4.582076 33.773598  
2002-08-12 11:51:33 51°6.81 2°32.578 19.094978 4.579755 33.776351  
2002-08-12 11:52:33 51°6.847 2°32.654 19.123419 4.578911 33.776882  
2002-08-12 11:53:33 51°6.84 2°32.665 19.086984 4.577961 33.774809  
2002-08-12 11:54:33 51°6.834 2°32.678 19.090141 4.57775 33.775375  
2002-08-12 11:55:33 51°6.831 2°32.693 19.103257 4.5787 33.778025  
2002-08-12 11:56:33 51°6.83 2°32.707 19.103216 4.579544 33.774608  
2002-08-12 11:57:32 51°6.831 2°32.719 19.106208 4.579122 33.775162  
2002-08-12 11:58:33 51°6.833 2°32.73 19.110429 4.578594 33.767919  
2002-08-12 11:59:33 51°6.835 2°32.741 19.149351 4.57986 33.774914  
2002-08-12 12:00:33 51°6.837 2°32.752 19.116781 4.579649 33.769133  
2002-08-12 12:01:33 51°6.839 2°32.762 19.123051 4.580071 33.769157  
2002-08-12 12:02:32 51°6.841 2°32.772 19.123419 4.580388 33.769464  
2002-08-12 12:03:33 51°6.843 2°32.782 19.193082 4.580388 33.767157  
2002-08-12 12:04:33 51°6.844 2°32.793 19.130057 4.580493 33.768605  
2002-08-12 12:05:33 51°6.846 2°32.803 19.164095 4.580388 33.764274  
2002-08-12 12:06:33 51°6.849 2°32.815 19.117396 4.580493 33.767452  
2002-08-12 12:07:33 51°6.853 2°32.829 19.151481 4.57986 33.770876  
2002-08-12 12:08:33 51°6.858 2°32.844 19.116085 4.579966 33.77117  
2002-08-12 12:09:33 51°6.864 2°32.861 19.118871 4.579649 33.765096  
2002-08-12 12:10:33 51°6.87 2°32.879 19.126492 4.579649 33.763366  
2002-08-12 12:11:33 51°6.876 2°32.898 19.117683 4.57986 33.768568  
2002-08-12 12:12:33 51°6.884 2°32.92 19.148778 4.578594 33.760997  
2002-08-12 12:13:33 51°6.881 2°33.041 19.122518 4.579333 33.764789  
2002-08-12 12:14:33 51°6.78 2°33.068 19.159304 4.581126 33.766336  
2002-08-12 12:15:33 51°6.736 2°33.052 19.232817 4.584818 33.765119  
2002-08-12 12:16:33 51°6.72 2°33.043 19.251592 4.587034 33.760943  
2002-08-12 12:17:33 51°6.707 2°33.027 19.258995 4.587561 33.751489  
2002-08-12 12:18:33 51°6.696 2°33.007 19.263616 4.588194 33.752107  
2002-08-12 12:19:32 51°6.689 2°32.986 19.23928 4.588721 33.750706  
2002-08-12 12:20:33 51°6.684 2°32.964 19.241612 4.588405 33.742928  
2002-08-12 12:21:33 51°6.686 2°32.945 19.242267 4.589038 33.744122  
2002-08-12 12:22:33 51°6.694 2°32.929 19.23564 4.589143 33.749586  
2002-08-12 12:23:33 51°6.702 2°32.912 19.219356 4.588827 33.75215  
2002-08-12 12:24:33 51°6.695 2°32.797 19.20356 4.586928 33.748572  
2002-08-12 12:25:33 51°6.652 2°32.561 19.159468 4.585029 33.75132  
2002-08-12 12:26:33 51°6.635 2°32.3 19.159918 4.580704 33.751328  
2002-08-12 12:27:33 51°6.581 2°32.044 19.134072 4.577961 33.746546  
2002-08-12 12:28:33 51°6.56 2°31.779 19.138906 4.578488 33.739379  
2002-08-12 12:29:33 51°6.522 2°31.516 19.132187 4.578699 33.740544  
2002-08-12 12:30:33 51°6.5 2°31.248 19.119404 4.576906 33.734955  
2002-08-12 12:31:33 51°6.515 2°30.998 19.137472 4.575745 33.727103  
2002-08-12 12:32:33 51°6.664 2°30.923 19.160778 4.577222 33.719721  
2002-08-12 12:33:32 51°6.829 2°30.941 19.201023 4.579648 33.721906  
2002-08-12 12:34:33 51°6.991 2°31.059 19.208799 4.582602 33.722693  
2002-08-12 12:35:33 51°7.171 2°31.246 19.256786 4.583446 33.719308  
2002-08-12 12:36:33 51°7.332 2°31.509 19.24243 4.584923 33.719418  
2002-08-12 12:37:33 51°7.487 2°31.788 19.273879 4.586189 33.712629  
2002-08-12 12:38:33 51°7.626 2°32.086 19.311361 4.589459 33.71432  
2002-08-12 12:39:33 51°7.757 2°32.392 19.3409 4.592835 33.716882  
2002-08-12 12:40:33 51°7.889 2°32.699 19.359646 4.595261 33.713361  
2002-08-12 12:41:33 51°8.025 2°33.003 19.378959 4.596844 33.71035  
2002-08-12 12:42:33 51°8.157 2°33.312 19.394675 4.597371 33.703822  
2002-08-12 12:43:33 51°8.285 2°33.625 19.405653 4.595472 33.673386  
2002-08-12 12:44:33 51°8.411 2°33.943 19.411693 4.597476 33.682419  
2002-08-12 12:45:33 51°8.532 2°34.265 19.430624 4.598848 33.682263  
2002-08-12 12:46:33 51°8.654 2°34.586 19.436376 4.599058 33.676011  
2002-08-12 12:47:33 51°8.772 2°34.915 19.433276 4.597898 33.665923  
2002-08-12 12:48:33 51°8.881 2°35.25 19.469042 4.596737 33.652418  
2002-08-12 12:49:33 51°8.989 2°35.582 19.48327 4.598109 33.665944  
2002-08-12 12:50:33 51°9.103 2°35.913 19.456075 4.59642 33.636729  
2002-08-12 12:51:33 51°9.215 2°36.245 19.438905 4.600746 33.669909  
2002-08-12 12:52:33 51°9.329 2°36.578 19.478093 4.598742 33.674555  
2002-08-12 12:53:33 51°9.444 2°36.911 19.500552 4.600324 33.669297  
2002-08-12 12:54:33 51°9.553 2°37.25 19.471692 4.601168 33.665395  
2002-08-12 12:55:32 51°9.648 2°37.591 19.456769 4.599058 33.680002  
2002-08-12 12:56:33 51°9.758 2°37.935 19.424627 4.60159 33.677967  
2002-08-12 12:57:33 51°9.899 2°38.238 19.303065 4.598426 33.700488  
2002-08-12 12:58:33 51°10.071 2°38.495 19.299346 4.592308 33.721136  
2002-08-12 12:59:33 51°10.237 2°38.768 19.283813 4.594523 33.745092  
2002-08-12 13:00:33 51°10.39 2°39.063 19.282873 4.595473 33.760362  
2002-08-12 13:01:33 51°10.498 2°39.402 19.281361 4.594629 33.756286  
2002-08-12 13:02:33 51°10.559 2°39.777 19.296935 4.594629 33.753991  
2002-08-12 13:03:33 51°10.626 2°40.154 19.353521 4.594629 33.739654  
2002-08-12 13:04:33 51°10.691 2°40.531 19.337673 4.595367 33.730257  
2002-08-12 13:05:33 51°10.758 2°40.91 19.351805 4.596105 33.721442  
2002-08-12 13:06:33 51°10.829 2°41.29 19.360871 4.597793 33.723869  
2002-08-12 13:07:33 51°10.899 2°41.671 19.37504 4.598004 33.718167  
2002-08-12 13:08:33 51°10.971 2°42.056 19.386389 4.59927 33.716559  
2002-08-12 13:09:33 51°11.043 2°42.437 19.403776 4.600958 33.720132  
2002-08-12 13:10:33 51°11.114 2°42.82 19.417977 4.602119 33.719945  
2002-08-12 13:11:33 51°11.186 2°43.202 19.457666 4.603384 33.718913  
2002-08-12 13:12:33 51°11.26 2°43.584 19.431277 4.603806 33.718379  
2002-08-12 13:13:33 51°11.337 2°43.968 19.515548 4.605917 33.726554  
2002-08-12 13:14:33 51°11.413 2°44.353 19.451059 4.605494 33.712252  
2002-08-12 13:15:33 51°11.487 2°44.734 19.453669 4.603701 33.698116  
2002-08-12 13:16:33 51°11.562 2°45.118 19.550621 4.604228 33.692181  
2002-08-12 13:17:33 51°11.643 2°45.501 19.584211 4.60275 33.622084  
2002-08-12 13:18:33 51°11.728 2°45.884 20.366231 4.598634 33.545966  
2002-08-12 13:19:33 51°11.821 2°46.26 20.368727 4.595152 33.507925  
2002-08-12 13:20:33 51°11.916 2°46.63 20.297965 4.589665 33.43272  
2002-08-12 13:21:33 51°12.015 2°47.003 20.446696 4.587132 33.395772  
2002-08-12 13:22:33 51°12.116 2°47.372 20.543775 4.582068 33.340477  
2002-08-12 13:23:33 51°12.22 2°47.74 20.637794 4.575315 33.257529  
2002-08-12 13:24:33 51°12.324 2°48.109 20.584881 4.571094 33.206465  
2002-08-12 13:25:33 51°12.443 2°48.468 20.401969 4.568878 33.178428  
2002-08-12 13:26:33 51°12.564 2°48.824 20.622634 4.565291 33.134266  
2002-08-12 13:27:33 51°12.681 2°49.182 20.31392 4.563602 33.102244  
2002-08-12 13:28:33 51°12.801 2°49.539 20.473229 4.554212 33.009984  
2002-08-12 13:29:33 51°12.92 2°49.9 20.207204 4.547881 32.936035  
2002-08-12 13:30:33 51°13.016 2°50.274 20.825737 4.542078 32.866477  
2002-08-12 13:31:33 51°13.096 2°50.662 20.780489 4.53638 32.802263  
2002-08-12 13:32:33 51°13.207 2°51.03 20.896932 4.534797 32.773043  
2002-08-12 13:33:33 51°13.332 2°51.352 20.882667 4.533109 32.747917  
2002-08-12 13:34:33 51°13.426 2°51.593 20.376858 4.528467 32.692949  
2002-08-12 13:35:33 51°13.552 2°51.861 20.658002 4.522242 32.629081  
2002-08-12 13:36:33 51°13.7 2°52.161 20.776287 4.515173 32.556304  
2002-08-12 13:37:33 51°13.848 2°52.469 20.722156 4.50821 32.485547  
2002-08-12 13:38:33 51°13.986 2°52.791 20.661129 4.502724 32.435398  
2002-08-12 13:39:33 51°14.1 2°53.138 20.958674 4.497238 32.389586  
2002-08-12 13:40:33 51°14.223 2°53.48 20.893775 4.491752 32.342175  
2002-08-12 13:41:33 51°14.341 2°53.826 20.654995 4.488376 32.312844  
2002-08-12 13:42:33 51°14.423 2°54.193 20.838175 4.486688 32.301941  
2002-08-12 13:43:33 51°14.464 2°54.57 20.469451 4.485 32.280299  
2002-08-12 13:44:33 51°14.402 2°54.918 20.969132 4.485316 32.253891  
2002-08-12 13:45:33 51°14.301 2°55.186 20.854248 4.473289 32.166287  
2002-08-12 13:46:32 51°14.208 2°55.337 20.571757 4.395964 31.501577  
2002-08-12 13:47:33 51°14.116 2°55.42 21.064222 4.052473 28.640326  
2002-08-12 13:48:33 51°14.027 2°55.485 21.148197 3.802841 26.640356  
2002-08-12 13:49:33 51°13.934 2°55.548 21.062947 3.608724 25.09147  
2002-08-12 13:50:33 51°13.856 2°55.607 21.195559 3.619893 25.191525